Lowry, Colorado
Current Conditions -  °F | °C
As of 3:58 PM on Saturday 25 Oct 2014 (Local Time) from KBKF Reporting Station
Clear Clear  
Wind Chill: 78°   Ceiling: Unl
Heat Index: 78°   Visibility: 10mi
Dew Point: 20°   Wind: 12mph
Humidity: 11%   Direction: 130°SE
Pressure: 30.11"   Gusts: NA
Location:  39.732°N, 104.924°W
Report Text: KBKF 252158Z 13010KT 10SM CLR 25/M07 A3011 RMK AO2A SLP132 T02541068
Loading
Personal Weather Stations






























Interactive Weather Map
Tropical Storm Tracking
New forecast layout! Learn more

10-Day Weather Forecast

Advertisements
Track Severe Weather on mobile